Time;durP1;ratioP1;P1;durP2;ratioP2;P2;SDS_P1;SDS_P2;PMS_P1;PMS_P2;Temp;Humidity;BMP_temperature;BMP_pressure;BME280_temperature;BME280_humidity;BME280_pressure;Samples;Min_cycle;Max_cycle;Signal;HPM_P1;HPM_P2
2022/02/16 00:00:52;;;;;;;14.55;4.22;;;11.10;85.60;;;;;;4996300;28;20488;-76
2022/02/16 00:03:17;;;;;;;19.77;3.80;;;11.10;85.80;;;;;;4996197;28;20080;-75
2022/02/16 00:05:43;;;;;;;18.83;3.90;;;11.10;86.20;;;;;;4995974;28;20022;-75
2022/02/16 00:08:09;;;;;;;18.65;3.80;;;11.10;86.40;;;;;;4995851;28;20026;-72
2022/02/16 00:10:35;;;;;;;17.63;3.90;;;11.10;86.50;;;;;;4996007;28;20030;-74
2022/02/16 00:13:01;;;;;;;16.17;3.85;;;11.10;86.60;;;;;;4995867;28;20019;-75
2022/02/16 00:15:28;;;;;;;16.65;3.70;;;11.10;86.70;;;;;;4995847;28;20105;-72
2022/02/16 00:17:54;;;;;;;26.58;3.90;;;11.10;86.40;;;;;;4995627;28;20092;-76
2022/02/16 00:20:21;;;;;;;16.20;3.65;;;11.20;86.40;;;;;;4995852;28;20492;-74
2022/02/16 00:22:47;;;;;;;12.30;2.83;;;11.20;85.70;;;;;;4994444;28;20491;-74
2022/02/16 00:25:13;;;;;;;12.00;3.03;;;11.20;86.30;;;;;;4995457;28;20105;-72
2022/02/16 00:27:39;;;;;;;14.05;3.00;;;11.30;86.50;;;;;;4977232;28;20034;-75
2022/02/16 00:30:07;;;;;;;21.13;3.38;;;11.30;86.10;;;;;;4995534;28;20023;-73
2022/02/16 00:32:33;;;;;;;12.90;2.80;;;11.30;85.90;;;;;;4995552;28;20078;-75
2022/02/16 00:34:59;;;;;;;16.83;3.38;;;11.20;86.20;;;;;;4995441;28;20165;-74
2022/02/16 00:37:24;;;;;;;17.13;2.97;;;11.20;86.40;;;;;;4995376;28;20038;-73
2022/02/16 00:39:50;;;;;;;21.40;3.33;;;11.20;86.80;;;;;;4995434;28;20459;-74
2022/02/16 00:42:16;;;;;;;16.15;3.10;;;11.10;86.60;;;;;;4995372;28;20168;-73
2022/02/16 00:44:41;;;;;;;17.77;3.42;;;11.10;87.00;;;;;;4995391;28;20031;-67
2022/02/16 00:47:07;;;;;;;10.55;2.70;;;11.10;86.90;;;;;;4995175;28;20029;-67
2022/02/16 00:49:33;;;;;;;11.10;2.38;;;11.00;86.90;;;;;;4995128;28;20033;-75
2022/02/16 00:51:59;;;;;;;16.42;2.80;;;11.00;86.80;;;;;;4995089;28;20023;-73
2022/02/16 00:54:25;;;;;;;11.82;2.50;;;11.00;86.50;;;;;;4995172;28;20058;-74
2022/02/16 00:56:50;;;;;;;12.27;2.67;;;10.90;86.50;;;;;;4995133;28;20053;-73
2022/02/16 00:59:16;;;;;;;11.35;2.15;;;10.90;86.30;;;;;;4995062;28;20070;-67
2022/02/16 01:01:42;;;;;;;8.65;2.30;;;11.00;86.20;;;;;;4995150;28;20455;-73
2022/02/16 01:04:07;;;;;;;9.77;2.08;;;11.00;85.90;;;;;;4995035;28;20022;-70
2022/02/16 01:06:33;;;;;;;9.07;2.03;;;11.00;86.10;;;;;;4994874;28;20026;-68
2022/02/16 01:08:59;;;;;;;12.90;2.75;;;11.00;85.20;;;;;;4994707;28;20106;-71
2022/02/16 01:11:25;;;;;;;8.88;2.00;;;11.00;84.90;;;;;;4994762;28;20030;-69
2022/02/16 01:13:51;;;;;;;14.45;2.83;;;10.90;84.70;;;;;;4994794;28;20073;-72
2022/02/16 01:16:17;;;;;;;13.27;2.13;;;10.90;84.40;;;;;;4994718;28;20484;-73
2022/02/16 01:18:43;;;;;;;10.55;2.28;;;10.90;84.80;;;;;;4994490;28;20110;-71
2022/02/16 01:21:08;;;;;;;13.57;2.28;;;10.80;84.50;;;;;;4977115;28;20353;-73
2022/02/16 01:23:34;;;;;;;11.32;2.67;;;10.80;84.60;;;;;;4994525;28;20034;-73
2022/02/16 01:26:00;;;;;;;11.68;2.30;;;10.80;84.90;;;;;;4994418;28;20015;-75
2022/02/16 01:28:26;;;;;;;14.57;2.53;;;10.70;85.00;;;;;;4993236;28;20041;-74
2022/02/16 01:30:51;;;;;;;14.77;2.30;;;10.70;85.40;;;;;;4994413;28;20033;-74
2022/02/16 01:33:18;;;;;;;11.93;2.53;;;10.70;85.40;;;;;;4993100;28;20159;-70
2022/02/16 01:35:44;;;;;;;11.90;2.83;;;10.60;85.00;;;;;;4994151;28;20022;-66
2022/02/16 01:38:10;;;;;;;10.73;2.22;;;10.60;85.80;;;;;;4993861;28;20046;-73
2022/02/16 01:40:36;;;;;;;15.27;2.80;;;10.60;85.80;;;;;;4994132;28;20065;-73
2022/02/16 01:43:01;;;;;;;13.23;2.85;;;10.60;86.10;;;;;;4994110;28;20396;-65
2022/02/16 01:45:29;;;;;;;9.02;2.13;;;10.50;86.10;;;;;;4994068;28;20157;-67
2022/02/16 01:47:56;;;;;;;12.60;2.63;;;10.50;86.40;;;;;;4994077;28;20023;-75
2022/02/16 01:50:23;;;;;;;13.18;2.35;;;10.50;86.60;;;;;;4994091;28;20026;-71
2022/02/16 01:52:48;;;;;;;15.50;2.80;;;10.50;86.60;;;;;;4994071;28;20034;-73
2022/02/16 01:55:15;;;;;;;16.27;2.35;;;10.50;86.70;;;;;;4994257;28;20026;-74
2022/02/16 01:57:42;;;;;;;12.52;3.05;;;10.40;86.80;;;;;;4993899;28;20089;-73
2022/02/16 02:00:08;;;;;;;14.27;2.65;;;10.40;87.00;;;;;;4994042;28;20026;-73
2022/02/16 02:02:35;;;;;;;20.48;3.85;;;10.50;87.10;;;;;;4993811;28;20493;-72
2022/02/16 02:05:00;;;;;;;11.55;2.40;;;10.50;87.10;;;;;;4993816;28;20030;-76
2022/02/16 02:07:26;;;;;;;16.50;2.80;;;10.40;87.20;;;;;;4993909;28;20073;-74
2022/02/16 02:09:52;;;;;;;11.35;2.67;;;10.40;87.30;;;;;;4993805;28;20050;-73
2022/02/16 02:12:18;;;;;;;13.60;2.22;;;10.40;87.40;;;;;;4994050;28;20104;-72
2022/02/16 02:14:52;;;;;;;17.55;2.85;;;10.40;87.70;;;;;;4994123;28;20101;-73
2022/02/16 02:17:18;;;;;;;12.38;2.58;;;10.50;87.70;;;;;;4992993;28;20041;-74
2022/02/16 02:19:45;;;;;;;12.48;2.53;;;10.40;87.70;;;;;;4993885;28;20019;-66
2022/02/16 02:22:11;;;;;;;16.98;2.58;;;10.40;87.30;;;;;;4993517;28;20026;-69
2022/02/16 02:24:38;;;;;;;13.68;2.90;;;10.40;87.80;;;;;;4993844;28;20484;-74
2022/02/16 02:27:05;;;;;;;13.63;2.40;;;10.40;87.80;;;;;;4993616;28;20030;-73
2022/02/16 02:29:31;;;;;;;11.35;2.70;;;10.40;87.90;;;;;;4993474;28;20484;-65
2022/02/16 02:31:57;;;;;;;12.73;2.72;;;10.40;88.10;;;;;;4993428;28;20034;-66
2022/02/16 02:34:24;;;;;;;9.32;2.35;;;10.50;88.00;;;;;;4993827;28;20025;-75
2022/02/16 02:36:51;;;;;;;10.15;2.33;;;10.40;87.90;;;;;;4993588;28;20023;-75
2022/02/16 02:39:17;;;;;;;13.43;2.60;;;10.40;88.00;;;;;;4993520;28;20034;-66
2022/02/16 02:41:42;;;;;;;14.98;2.47;;;10.40;88.20;;;;;;4993360;28;20053;-65
2022/02/16 02:44:08;;;;;;;15.32;2.40;;;10.40;88.40;;;;;;4993460;28;20022;-66
2022/02/16 02:46:34;;;;;;;11.07;2.05;;;10.30;88.40;;;;;;4993763;28;20033;-64
2022/02/16 02:49:00;;;;;;;14.60;2.92;;;10.30;88.60;;;;;;4995579;28;20025;-76
2022/02/16 02:51:25;;;;;;;8.60;2.22;;;10.40;88.60;;;;;;4997741;28;20137;-74
2022/02/16 02:53:51;;;;;;;12.55;2.60;;;10.30;88.50;;;;;;4997279;28;20105;-65
2022/02/16 02:56:17;;;;;;;15.98;3.05;;;10.30;88.50;;;;;;4997319;28;20109;-64
2022/02/16 02:58:43;;;;;;;13.15;2.58;;;10.40;89.10;;;;;;4997122;28;20431;-73
2022/02/16 03:01:08;;;;;;;13.05;3.10;;;10.40;89.10;;;;;;4995984;28;20022;-67
2022/02/16 03:03:35;;;;;;;13.43;2.42;;;10.40;89.10;;;;;;4997267;28;20031;-66
2022/02/16 03:06:03;;;;;;;17.65;3.00;;;10.40;89.30;;;;;;4997093;28;20567;-66
2022/02/16 03:08:29;;;;;;;13.35;2.53;;;10.40;89.20;;;;;;4997108;28;20026;-73
2022/02/16 03:10:56;;;;;;;14.05;2.92;;;10.30;89.20;;;;;;4997126;28;20037;-70
2022/02/16 03:13:22;;;;;;;14.20;2.60;;;10.30;89.30;;;;;;4997023;28;20030;-71
2022/02/16 03:15:51;;;;;;;14.57;3.72;;;10.30;89.50;;;;;;4996972;28;20026;-74
2022/02/16 03:18:20;;;;;;;21.42;3.55;;;10.20;89.80;;;;;;4997209;28;20063;-67
2022/02/16 03:20:46;;;;;;;15.05;3.13;;;10.20;89.90;;;;;;4996942;28;20105;-65
2022/02/16 03:23:12;;;;;;;16.92;2.83;;;10.20;90.00;;;;;;4996893;28;20132;-74
2022/02/16 03:25:38;;;;;;;15.85;3.08;;;10.20;90.00;;;;;;4997377;28;20432;-74
2022/02/16 03:28:04;;;;;;;21.55;3.25;;;10.20;90.10;;;;;;4997102;28;20375;-67
2022/02/16 03:30:30;;;;;;;16.33;3.08;;;10.20;90.20;;;;;;4979308;28;20360;-67
2022/02/16 03:32:56;;;;;;;20.42;3.63;;;10.20;90.20;;;;;;4996724;28;20038;-75
2022/02/16 03:35:22;;;;;;;15.23;3.30;;;10.20;90.20;;;;;;4996738;28;20026;-70
2022/02/16 03:37:47;;;;;;;15.27;3.25;;;10.20;90.20;;;;;;4996281;28;20042;-68
2022/02/16 03:40:13;;;;;;;14.63;3.22;;;10.20;90.20;;;;;;4996583;28;20057;-72
2022/02/16 03:42:39;;;;;;;13.68;3.33;;;10.20;90.30;;;;;;4996602;28;20034;-71
2022/02/16 03:45:05;;;;;;;15.30;2.95;;;10.20;90.40;;;;;;4996701;28;20507;-74
2022/02/16 03:47:31;;;;;;;13.45;3.97;;;10.20;90.40;;;;;;4996438;28;20065;-74
2022/02/16 03:49:57;;;;;;;14.38;3.28;;;10.10;90.40;;;;;;4996237;28;20065;-66
2022/02/16 03:52:22;;;;;;;14.73;3.10;;;10.10;90.60;;;;;;4996336;28;20026;-66
2022/02/16 03:54:48;;;;;;;16.83;3.85;;;10.10;90.70;;;;;;4996295;28;20026;-69
2022/02/16 03:57:14;;;;;;;15.80;3.72;;;10.20;90.70;;;;;;4996630;28;20050;-69
2022/02/16 03:59:40;;;;;;;16.33;3.30;;;10.10;90.60;;;;;;4996510;28;20463;-73
2022/02/16 04:02:08;;;;;;;18.02;3.15;;;10.10;90.70;;;;;;4996175;28;20030;-71
2022/02/16 04:04:33;;;;;;;14.35;2.90;;;10.10;90.80;;;;;;4996348;28;20062;-73
2022/02/16 04:06:59;;;;;;;18.30;3.60;;;10.10;90.90;;;;;;4996019;28;20050;-65
2022/02/16 04:09:25;;;;;;;12.57;3.00;;;10.10;90.90;;;;;;4995948;28;20038;-65
2022/02/16 04:11:50;;;;;;;19.23;4.53;;;10.20;90.90;;;;;;4995898;28;20030;-68
2022/02/16 04:14:16;;;;;;;15.35;3.38;;;10.20;91.00;;;;;;4995978;28;20043;-69
2022/02/16 04:16:42;;;;;;;15.65;3.58;;;10.10;90.90;;;;;;4996161;28;20027;-72
2022/02/16 04:19:07;;;;;;;13.32;3.92;;;10.10;91.00;;;;;;4995769;28;20488;-72
2022/02/16 04:21:33;;;;;;;16.98;3.70;;;10.10;91.20;;;;;;4995868;28;20433;-66
2022/02/16 04:23:59;;;;;;;13.20;3.35;;;10.10;91.00;;;;;;4995665;28;20464;-66
2022/02/16 04:26:26;;;;;;;15.63;2.85;;;10.00;91.20;;;;;;4995805;28;20084;-66
2022/02/16 04:28:51;;;;;;;19.25;3.20;;;10.00;91.50;;;;;;4995624;28;20019;-67
2022/02/16 04:31:17;;;;;;;14.77;2.88;;;10.00;91.70;;;;;;4995534;28;20037;-68
2022/02/16 04:33:43;;;;;;;15.63;3.30;;;9.90;91.90;;;;;;4995695;28;20422;-67
2022/02/16 04:36:09;;;;;;;15.25;2.90;;;9.90;91.90;;;;;;4995854;28;20023;-69
2022/02/16 04:38:34;;;;;;;13.13;2.83;;;9.80;91.90;;;;;;4995381;28;20034;-69
2022/02/16 04:41:00;;;;;;;12.65;3.28;;;9.80;92.10;;;;;;4995359;28;20125;-70
2022/02/16 04:43:26;;;;;;;13.77;3.78;;;9.80;92.30;;;;;;4995439;28;20085;-70
2022/02/16 04:45:51;;;;;;;14.98;3.05;;;9.80;92.30;;;;;;4995343;28;20025;-71
2022/02/16 04:48:17;;;;;;;12.13;2.90;;;9.90;92.20;;;;;;4995453;28;20034;-71
2022/02/16 04:50:44;;;;;;;15.48;3.35;;;9.80;92.20;;;;;;4994101;28;20023;-73
2022/02/16 04:53:09;;;;;;;12.45;2.65;;;9.80;92.20;;;;;;4995330;28;20042;-75
2022/02/16 04:55:35;;;;;;;20.70;4.93;;;9.80;92.30;;;;;;4995276;28;20101;-71
2022/02/16 04:58:02;;;;;;;12.18;3.05;;;9.90;92.20;;;;;;4995111;28;20061;-74
2022/02/16 05:00:28;;;;;;;15.63;3.40;;;9.90;92.30;;;;;;4995179;28;20018;-74
2022/02/16 05:02:54;;;;;;;14.43;3.40;;;9.90;92.30;;;;;;4995102;28;20022;-71
2022/02/16 05:05:19;;;;;;;15.52;3.90;;;9.90;92.30;;;;;;4995019;28;20451;-69
2022/02/16 05:07:45;;;;;;;14.98;3.47;;;9.90;92.30;;;;;;4994927;28;20030;-75
2022/02/16 05:10:11;;;;;;;13.93;3.15;;;9.90;92.20;;;;;;4994910;28;20105;-76
2022/02/16 05:12:38;;;;;;;12.10;3.08;;;9.80;92.10;;;;;;4994381;28;20117;-74
2022/02/16 05:15:05;;;;;;;15.05;3.97;;;9.80;92.40;;;;;;4993589;28;20050;-70
2022/02/16 05:17:31;;;;;;;11.43;3.28;;;9.70;92.30;;;;;;4994638;28;20109;-68
2022/02/16 05:19:56;;;;;;;14.07;3.10;;;9.70;92.50;;;;;;4994633;28;20105;-73
2022/02/16 05:22:22;;;;;;;15.30;3.72;;;9.70;92.50;;;;;;4994801;28;20046;-73
2022/02/16 05:24:48;;;;;;;15.85;3.50;;;9.70;92.50;;;;;;4994403;28;20463;-71
2022/02/16 05:27:15;;;;;;;18.73;4.25;;;9.70;92.60;;;;;;4994539;28;20030;-72
2022/02/16 05:29:41;;;;;;;19.10;4.35;;;9.70;92.50;;;;;;4994479;28;20056;-72
2022/02/16 05:32:08;;;;;;;12.25;3.45;;;9.60;92.60;;;;;;4994348;28;20022;-74
2022/02/16 05:34:34;;;;;;;17.25;4.38;;;9.60;92.80;;;;;;4994414;28;20495;-73
2022/02/16 05:37:01;;;;;;;15.80;3.20;;;9.50;93.20;;;;;;4994249;28;20035;-73
2022/02/16 05:39:27;;;;;;;23.35;7.82;;;9.50;92.90;;;;;;4994225;28;20033;-71
2022/02/16 05:41:53;;;;;;;16.25;3.25;;;9.60;93.10;;;;;;4973440;28;20046;-74
2022/02/16 05:44:20;;;;;;;15.13;3.17;;;9.60;92.90;;;;;;4974681;28;20124;-67
2022/02/16 05:46:45;;;;;;;10.65;3.00;;;9.60;93.00;;;;;;4974801;28;20213;-76
2022/02/16 05:49:12;;;;;;;15.77;3.85;;;9.60;92.90;;;;;;4989630;28;20026;-76
2022/02/16 05:51:38;;;;;;;13.80;3.35;;;9.70;92.90;;;;;;4973318;28;20027;-71
2022/02/16 05:54:05;;;;;;;17.25;3.60;;;9.80;92.70;;;;;;4974672;28;20465;-73
2022/02/16 05:56:32;;;;;;;12.23;3.97;;;9.80;92.60;;;;;;4974650;28;20109;-71
2022/02/16 05:58:58;;;;;;;9.65;3.50;;;9.80;92.50;;;;;;4974476;28;20042;-74
2022/02/16 06:01:24;;;;;;;27.13;4.70;;;9.80;92.40;;;;;;4974630;28;20050;-66
2022/02/16 06:03:49;;;;;;;15.45;3.80;;;9.70;92.30;;;;;;4989530;28;20045;-74
2022/02/16 06:06:17;;;;;;;16.50;3.75;;;9.70;92.40;;;;;;4974774;28;20125;-75
2022/02/16 06:08:42;;;;;;;11.60;3.90;;;9.60;92.40;;;;;;4973037;28;20433;-75
2022/02/16 06:11:10;;;;;;;16.15;5.25;;;9.60;92.50;;;;;;4974555;28;20027;-76
2022/02/16 06:13:36;;;;;;;13.82;5.13;;;9.70;92.70;;;;;;4974761;28;20035;-73
2022/02/16 06:16:04;;;;;;;13.20;4.00;;;9.70;92.40;;;;;;4989891;28;20038;-73
2022/02/16 06:18:30;;;;;;;17.55;4.43;;;9.80;91.70;;;;;;4979594;28;20050;-75
2022/02/16 06:20:56;;;;;;;12.98;3.63;;;9.70;92.20;;;;;;4980775;28;20027;-66
2022/02/16 06:23:22;;;;;;;16.42;4.47;;;9.70;92.10;;;;;;4974138;28;20077;-66
2022/02/16 06:25:47;;;;;;;12.88;3.45;;;9.70;92.10;;;;;;4973908;28;20027;-66
2022/02/16 06:28:13;;;;;;;16.90;4.80;;;9.70;92.00;;;;;;4974198;28;20048;-69
2022/02/16 06:30:39;;;;;;;15.95;4.00;;;9.70;92.10;;;;;;4974347;28;20027;-73
2022/02/16 06:33:05;;;;;;;15.20;4.50;;;9.70;91.80;;;;;;4978481;28;20516;-67
2022/02/16 06:35:33;;;;;;;13.35;3.97;;;9.70;92.10;;;;;;4984343;28;20035;-76
2022/02/16 06:37:59;;;;;;;15.57;4.07;;;9.80;92.10;;;;;;4972570;28;20031;-68
2022/02/16 06:40:27;;;;;;;15.30;4.30;;;9.70;91.90;;;;;;4994123;28;20615;-73
2022/02/16 06:42:54;;;;;;;17.90;4.47;;;9.80;92.10;;;;;;4974186;28;20035;-72
2022/02/16 06:45:20;;;;;;;18.60;5.05;;;9.80;91.90;;;;;;4973726;28;20027;-75
2022/02/16 06:47:46;;;;;;;14.88;4.00;;;9.90;91.90;;;;;;4973883;28;20053;-72
2022/02/16 06:50:11;;;;;;;13.75;4.40;;;10.00;91.20;;;;;;4973934;28;20446;-72
2022/02/16 06:52:37;;;;;;;18.00;4.47;;;10.00;90.90;;;;;;4974041;28;20035;-69
2022/02/16 06:55:04;;;;;;;13.20;4.35;;;10.10;91.00;;;;;;4973791;28;20093;-67
2022/02/16 06:57:30;;;;;;;16.27;4.65;;;10.20;90.80;;;;;;4973591;28;20089;-69
2022/02/16 06:59:56;;;;;;;20.08;4.75;;;10.30;90.70;;;;;;4972500;28;20035;-69
2022/02/16 07:02:22;;;;;;;15.68;4.75;;;10.50;90.60;;;;;;4975517;28;20058;-73
2022/02/16 07:04:48;;;;;;;13.07;4.50;;;10.60;90.40;;;;;;4973690;28;20208;-69
2022/02/16 07:07:13;;;;;;;18.42;4.82;;;10.70;90.30;;;;;;4973729;28;20022;-75
2022/02/16 07:09:39;;;;;;;15.45;4.90;;;10.80;90.10;;;;;;4972200;28;20033;-72
2022/02/16 07:12:06;;;;;;;13.63;4.75;;;10.80;89.90;;;;;;4973724;28;20031;-75
2022/02/16 07:14:32;;;;;;;15.35;4.78;;;10.80;89.40;;;;;;4973648;28;20029;-69
2022/02/16 07:16:59;;;;;;;18.85;5.60;;;10.70;89.30;;;;;;4973877;28;20023;-71
2022/02/16 07:19:26;;;;;;;14.60;5.20;;;10.80;89.90;;;;;;4972276;28;20038;-67
2022/02/16 07:21:52;;;;;;;25.25;6.68;;;10.80;89.80;;;;;;4973487;28;20137;-71
2022/02/16 07:24:19;;;;;;;22.05;6.80;;;10.90;90.00;;;;;;4973469;28;20035;-72
2022/02/16 07:26:45;;;;;;;21.52;6.07;;;10.90;90.00;;;;;;4973551;28;20019;-72
2022/02/16 07:29:11;;;;;;;22.77;5.57;;;10.90;89.50;;;;;;4973853;28;20406;-72
2022/02/16 07:31:37;;;;;;;12.88;4.65;;;10.90;89.50;;;;;;4973453;28;20102;-69
2022/02/16 07:34:03;;;;;;;17.42;5.85;;;10.70;89.40;;;;;;4973131;28;20030;-74
2022/02/16 07:36:29;;;;;;;21.20;5.80;;;10.70;89.70;;;;;;4975366;28;20050;-69
2022/02/16 07:38:55;;;;;;;19.83;6.10;;;10.70;90.00;;;;;;4979204;28;20077;-71
2022/02/16 07:41:22;;;;;;;22.88;6.28;;;10.80;89.50;;;;;;5006259;28;20100;-74
2022/02/16 07:43:50;;;;;;;16.40;5.60;;;10.90;89.60;;;;;;5015910;28;20092;-67
2022/02/16 07:46:18;;;;;;;17.88;6.45;;;11.10;89.30;;;;;;5016118;28;20026;-71
2022/02/16 07:48:44;;;;;;;16.67;6.75;;;11.30;89.30;;;;;;5015655;28;20026;-70
2022/02/16 07:51:10;;;;;;;25.02;6.10;;;11.50;88.60;;;;;;5015801;28;20034;-72
2022/02/16 07:53:37;;;;;;;20.88;6.70;;;11.70;88.20;;;;;;5011794;28;20032;-70
2022/02/16 07:56:04;;;;;;;21.08;6.60;;;11.90;87.80;;;;;;5015415;28;20044;-73
2022/02/16 07:58:30;;;;;;;26.27;7.15;;;12.00;87.20;;;;;;5015258;28;20041;-71
2022/02/16 08:00:57;;;;;;;18.80;6.90;;;12.20;87.10;;;;;;4997823;28;20030;-71
2022/02/16 08:03:22;;;;;;;19.42;6.65;;;12.30;86.60;;;;;;5015478;28;20403;-77
2022/02/16 08:05:49;;;;;;;18.40;7.05;;;12.40;85.70;;;;;;5015527;28;20490;-73
2022/02/16 08:08:14;;;;;;;17.08;5.53;;;12.50;84.90;;;;;;5015283;28;20021;-71
2022/02/16 08:10:40;;;;;;;24.52;9.60;;;12.60;83.80;;;;;;5015027;28;20426;-70
2022/02/16 08:13:06;;;;;;;15.77;8.10;;;12.60;84.30;;;;;;5015153;28;20033;-70
2022/02/16 08:15:32;;;;;;;19.70;7.20;;;12.80;84.30;;;;;;5014848;28;20029;-73
2022/02/16 08:18:00;;;;;;;17.92;6.65;;;12.90;83.50;;;;;;5014747;28;20065;-73
2022/02/16 08:20:25;;;;;;;19.52;6.05;;;12.90;82.80;;;;;;5015199;28;20030;-72
2022/02/16 08:22:51;;;;;;;29.02;6.68;;;13.00;82.30;;;;;;5014757;28;20116;-75
2022/02/16 08:25:18;;;;;;;19.67;5.88;;;13.00;81.60;;;;;;5014852;28;20359;-75
2022/02/16 08:27:45;;;;;;;18.30;5.85;;;13.00;81.10;;;;;;5013923;28;20046;-72
2022/02/16 08:30:13;;;;;;;19.65;5.70;;;13.10;81.00;;;;;;5015017;28;20050;-73
2022/02/16 08:32:40;;;;;;;23.05;6.32;;;13.10;80.30;;;;;;5015026;28;20328;-72
2022/02/16 08:35:08;;;;;;;20.58;5.90;;;13.20;80.40;;;;;;5014806;28;20037;-74
2022/02/16 08:37:35;;;;;;;19.88;6.22;;;13.20;79.80;;;;;;5014684;28;20125;-74
2022/02/16 08:40:01;;;;;;;21.80;10.90;;;13.30;79.60;;;;;;5014274;28;20069;-71
2022/02/16 08:42:27;;;;;;;21.50;6.57;;;13.40;79.40;;;;;;5015046;28;20398;-74
2022/02/16 08:44:55;;;;;;;14.90;5.65;;;13.50;79.30;;;;;;5014775;28;20026;-72
2022/02/16 08:47:21;;;;;;;14.68;5.38;;;13.60;79.00;;;;;;5014206;28;20033;-74
2022/02/16 08:49:46;;;;;;;17.35;4.63;;;13.70;77.90;;;;;;5014660;28;20340;-72
2022/02/16 08:52:12;;;;;;;17.27;4.25;;;13.80;77.80;;;;;;5014769;28;20026;-74
2022/02/16 08:54:38;;;;;;;18.23;4.75;;;13.90;77.50;;;;;;5014531;28;20040;-72
2022/02/16 08:57:04;;;;;;;16.33;4.63;;;14.00;76.50;;;;;;5014496;28;20033;-72
2022/02/16 08:59:30;;;;;;;15.23;4.03;;;14.10;76.70;;;;;;5014163;28;20029;-71
2022/02/16 09:01:57;;;;;;;17.13;4.15;;;14.20;75.90;;;;;;5017156;28;20029;-73
2022/02/16 09:04:23;;;;;;;17.83;4.32;;;14.20;75.90;;;;;;5020643;28;20357;-66
2022/02/16 09:09:37;;;;;;;13.48;4.32;;;14.40;74.80;;;;;;5014751;28;20037;-69
2022/02/16 09:12:04;;;;;;;18.23;4.53;;;14.50;74.80;;;;;;5013939;28;20030;-72
2022/02/16 09:14:29;;;;;;;15.20;5.25;;;14.60;74.60;;;;;;5014018;28;20117;-73
2022/02/16 09:16:56;;;;;;;16.10;4.78;;;14.60;73.80;;;;;;5014051;28;20121;-72
2022/02/16 09:19:22;;;;;;;15.98;4.88;;;14.70;73.60;;;;;;5014146;28;20065;-71
2022/02/16 09:21:49;;;;;;;20.10;5.57;;;14.70;73.00;;;;;;5013820;28;20414;-68
2022/02/16 09:24:15;;;;;;;15.23;4.75;;;14.70;73.20;;;;;;5013752;28;20026;-72
2022/02/16 09:26:41;;;;;;;10.52;4.38;;;14.80;72.90;;;;;;5013615;28;20112;-67
2022/02/16 09:29:06;;;;;;;18.88;3.92;;;14.80;72.90;;;;;;5013728;28;20152;-70
2022/02/16 09:31:32;;;;;;;16.45;3.30;;;14.90;72.70;;;;;;5013855;28;20502;-70
2022/02/16 09:33:58;;;;;;;14.45;4.25;;;14.80;71.80;;;;;;5013665;28;20125;-69
2022/02/16 09:36:25;;;;;;;12.48;3.92;;;14.80;72.20;;;;;;5013626;28;20022;-68
2022/02/16 09:38:51;;;;;;;16.33;3.50;;;14.90;72.20;;;;;;5013911;28;20128;-69
2022/02/16 09:41:17;;;;;;;14.77;3.28;;;14.90;71.80;;;;;;4992311;28;20137;-69
2022/02/16 09:43:46;;;;;;;16.00;4.38;;;14.80;71.40;;;;;;4993979;28;20035;-73
2022/02/16 09:46:11;;;;;;;16.70;3.67;;;14.90;71.70;;;;;;4992655;28;20027;-69
2022/02/16 09:48:40;;;;;;;14.43;3.38;;;14.80;70.90;;;;;;4993805;28;20022;-69
2022/02/16 09:51:06;;;;;;;16.08;4.15;;;14.80;71.20;;;;;;4993592;28;20158;-68
2022/02/16 09:53:32;;;;;;;21.27;4.18;;;14.80;70.90;;;;;;4993505;28;20035;-71
2022/02/16 09:56:01;;;;;;;15.73;4.13;;;14.80;70.50;;;;;;4993490;28;20038;-66
2022/02/16 09:58:27;;;;;;;15.15;3.75;;;14.80;70.80;;;;;;4993376;28;20054;-69
2022/02/16 10:01:11;;;;;;;20.48;3.42;;;14.70;70.00;;;;;;4993749;28;20462;-71
2022/02/16 10:03:37;;;;;;;11.20;2.97;;;14.70;70.30;;;;;;4993662;28;20098;-68
2022/02/16 10:06:03;;;;;;;15.27;3.67;;;14.70;69.60;;;;;;4993666;28;20435;-69
2022/02/16 10:08:46;;;;;;;15.43;3.38;;;14.70;68.90;;;;;;4992249;28;20113;-68
2022/02/16 10:11:15;;;;;;;16.77;4.18;;;14.80;69.30;;;;;;4993194;28;20487;-70
2022/02/16 10:13:41;;;;;;;32.33;3.95;;;14.80;67.60;;;;;;4993364;28;20030;-72
2022/02/16 10:16:07;;;;;;;11.32;3.63;;;14.80;67.60;;;;;;4992128;28;20379;-75
2022/02/16 10:18:33;;;;;;;14.88;3.83;;;14.80;67.60;;;;;;4991946;28;20039;-71
2022/02/16 10:21:07;;;;;;;14.23;3.42;;;14.80;68.10;;;;;;4993601;28;20383;-73
2022/02/16 10:23:40;;;;;;;;;;;14.90;66.70;;;;;;4993917;28;20091;-75
2022/02/16 10:26:06;;;;;;;11.95;3.45;;;14.90;67.20;;;;;;4993111;28;20527;-67
2022/02/16 10:28:40;;;;;;;13.05;4.20;;;15.00;66.30;;;;;;4993111;28;20069;-74
2022/02/16 10:31:07;;;;;;;13.05;3.15;;;15.20;66.20;;;;;;4992971;28;20093;-71
2022/02/16 10:33:38;;;;;;;15.35;3.35;;;15.30;65.40;;;;;;4992924;28;20027;-70
2022/02/16 10:36:14;;;;;;;10.40;2.70;;;15.10;65.00;;;;;;4993180;28;20034;-72
2022/02/16 10:38:55;;;;;;;14.35;3.22;;;14.90;63.60;;;;;;4992841;28;20141;-73
2022/02/16 10:41:30;;;;;;;14.85;3.78;;;14.70;63.30;;;;;;5002753;28;20060;-73
2022/02/16 10:43:57;;;;;;;21.98;3.30;;;14.70;63.70;;;;;;5012761;28;20061;-72
2022/02/16 10:46:24;;;;;;;9.20;3.55;;;14.70;63.10;;;;;;5012683;28;20076;-70
2022/02/16 10:49:11;;;;;;;9.75;3.25;;;14.80;63.70;;;;;;5012154;28;20033;-75
2022/02/16 10:51:37;;;;;;;11.05;3.53;;;14.90;63.90;;;;;;5012715;28;20038;-70
2022/02/16 10:54:21;;;;;;;11.25;3.03;;;15.00;63.10;;;;;;5012611;28;20026;-74
2022/02/16 10:56:51;;;;;;;8.38;3.08;;;15.00;62.20;;;;;;5012650;28;20029;-70
2022/02/16 10:59:17;;;;;;;7.72;2.50;;;15.10;61.80;;;;;;5012433;28;20049;-72
2022/02/16 11:01:43;;;;;;;7.30;3.08;;;15.10;60.90;;;;;;5012477;28;20038;-68
2022/02/16 11:04:13;;;;;;;9.68;3.20;;;15.10;60.00;;;;;;5012442;28;20049;-66
2022/02/16 11:06:43;;;;;;;12.25;3.88;;;15.20;59.60;;;;;;5012396;28;20033;-68
2022/02/16 11:09:18;;;;;;;9.05;2.83;;;15.30;59.30;;;;;;5012415;28;20068;-68
2022/02/16 11:11:48;;;;;;;13.00;4.15;;;15.20;58.60;;;;;;5015580;28;20111;-66
2022/02/16 11:14:15;;;;;;;9.40;3.17;;;15.30;59.10;;;;;;5016346;28;20045;-69
2022/02/16 11:16:44;;;;;;;13.27;3.70;;;15.20;59.40;;;;;;5016157;28;20037;-70
2022/02/16 11:19:28;;;;;;;12.73;3.70;;;15.30;60.00;;;;;;5016251;28;20034;-67
2022/02/16 11:22:04;;;;;;;15.85;3.80;;;15.30;60.10;;;;;;5016592;28;20045;-71
2022/02/16 11:24:42;;;;;;;11.48;3.88;;;15.30;59.80;;;;;;5016185;28;20080;-71
2022/02/16 11:27:38;;;;;;;12.48;4.07;;;15.30;60.10;;;;;;5015720;28;20550;-73
2022/02/16 11:30:30;;;;;;;8.60;3.88;;;15.20;60.50;;;;;;5013691;28;20038;-69
2022/02/16 11:33:20;;;;;;;10.63;4.00;;;15.30;60.60;;;;;;5015953;28;20471;-73
2022/02/16 11:35:57;;;;;;;14.82;3.85;;;15.50;60.40;;;;;;5015721;28;20052;-73
2022/02/16 11:38:45;;;;;;;9.63;3.10;;;15.60;59.80;;;;;;5015513;28;20113;-68
2022/02/16 11:41:28;;;;;;;7.18;3.22;;;15.70;59.00;;;;;;5015436;28;20447;-68
2022/02/16 11:44:02;;;;;;;8.23;2.95;;;15.80;58.50;;;;;;5015939;28;20036;-71
2022/02/16 11:46:54;;;;;;;6.88;2.42;;;15.90;57.80;;;;;;5015578;28;20033;-72
2022/02/16 11:49:29;;;;;;;13.98;2.92;;;16.00;57.40;;;;;;5015658;28;20026;-72
2022/02/16 11:51:56;;;;;;;9.20;3.95;;;16.10;56.60;;;;;;5015698;28;20028;-72
2022/02/16 11:54:44;;;;;;;11.75;3.22;;;16.30;55.90;;;;;;5015528;28;20033;-72
2022/02/16 11:57:40;;;;;;;9.48;2.80;;;16.40;55.50;;;;;;5015667;28;20033;-69
2022/02/16 12:00:09;;;;;;;10.43;2.92;;;16.60;55.40;;;;;;5015778;28;20356;-68
2022/02/16 12:02:54;;;;;;;8.18;2.28;;;16.60;55.10;;;;;;5015123;28;20045;-67
2022/02/16 12:05:49;;;;;;;7.53;2.90;;;16.80;54.30;;;;;;5015410;28;20026;-66
2022/02/16 12:08:27;;;;;;;10.32;3.35;;;16.90;54.10;;;;;;5012280;28;20065;-66
2022/02/16 12:11:04;;;;;;;15.07;5.18;;;16.70;54.90;;;;;;5015243;28;20483;-69
2022/02/16 12:13:42;;;;;;;8.75;2.90;;;16.80;54.90;;;;;;5015033;28;20030;-69
2022/02/16 12:16:10;;;;;;;10.27;2.60;;;16.90;53.00;;;;;;5015036;28;20100;-70
2022/02/16 12:18:38;;;;;;;7.82;3.08;;;16.70;52.80;;;;;;4997241;28;20554;-69
2022/02/16 12:21:06;;;;;;;4.55;2.47;;;16.60;52.80;;;;;;5014567;28;20147;-69
2022/02/16 12:23:39;;;;;;;7.43;2.38;;;16.40;52.90;;;;;;5013967;28;20452;-71
2022/02/16 12:26:14;;;;;;;8.73;2.83;;;16.30;53.00;;;;;;5015320;28;20042;-68
2022/02/16 12:29:00;;;;;;;5.07;2.42;;;16.30;53.00;;;;;;5015174;28;20022;-73
2022/02/16 12:31:29;;;;;;;10.60;3.47;;;16.20;53.40;;;;;;5015310;28;20105;-73
2022/02/16 12:34:01;;;;;;;8.30;2.38;;;16.30;53.40;;;;;;5015104;28;20492;-71
2022/02/16 12:36:28;;;;;;;8.73;2.70;;;16.30;52.90;;;;;;5015302;28;20028;-67
2022/02/16 12:38:59;;;;;;;7.50;2.50;;;16.30;53.20;;;;;;5014789;28;20044;-67
2022/02/16 12:41:26;;;;;;;8.25;2.63;;;16.40;52.60;;;;;;5015047;28;20486;-69
2022/02/16 12:43:54;;;;;;;5.90;2.53;;;16.50;52.20;;;;;;5015083;28;20064;-69
2022/02/16 12:46:23;;;;;;;7.00;2.63;;;16.50;51.80;;;;;;5014808;28;20030;-68